createdAt,value
2018-07-30T00:00:34.255Z,20.54
2018-07-30T00:01:34.305Z,20.42
2018-07-30T00:02:34.386Z,20.50
2018-07-30T00:03:34.414Z,20.38
2018-07-30T00:04:34.462Z,20.34
2018-07-30T00:05:34.509Z,20.31
2018-07-30T00:06:34.563Z,20.30
2018-07-30T00:07:34.637Z,20.30
2018-07-30T00:08:34.664Z,20.16
2018-07-30T00:09:34.739Z,20.23
2018-07-30T00:10:34.769Z,20.16
2018-07-30T00:11:34.818Z,20.25
2018-07-30T00:12:34.871Z,20.21
2018-07-30T00:13:34.954Z,20.24
2018-07-30T00:14:34.972Z,20.23
2018-07-30T00:15:35.024Z,20.24
2018-07-30T00:16:35.078Z,20.16
2018-07-30T00:17:35.125Z,20.13
2018-07-30T00:18:35.206Z,20.09
2018-07-30T00:19:35.254Z,20.08
2018-07-30T00:20:35.280Z,20.15
2018-07-30T00:21:35.332Z,20.09
2018-07-30T00:22:35.385Z,20.08
2018-07-30T00:23:35.437Z,20.08
2018-07-30T00:24:35.508Z,20.08
2018-07-30T00:25:35.536Z,20.03
2018-07-30T00:26:35.589Z,20.10
2018-07-30T00:27:35.637Z,20.06
2018-07-30T00:28:35.688Z,20.16
2018-07-30T00:29:35.764Z,20.15
2018-07-30T00:30:35.791Z,20.23
2018-07-30T00:31:35.846Z,20.30
2018-07-30T00:32:35.893Z,20.38
2018-07-30T00:33:35.945Z,20.47
2018-07-30T00:34:36.032Z,20.51
2018-07-30T00:35:36.048Z,20.56
2018-07-30T00:36:36.099Z,20.56
2018-07-30T00:37:36.149Z,20.59
2018-07-30T00:38:36.204Z,20.56
2018-07-30T00:39:36.293Z,20.49
2018-07-30T00:40:36.303Z,20.56
2018-07-30T00:41:36.356Z,20.53
2018-07-30T00:42:36.409Z,20.54
2018-07-30T00:43:36.457Z,20.47
2018-07-30T00:44:36.538Z,20.46
2018-07-30T00:45:36.559Z,20.49
2018-07-30T00:46:36.613Z,20.54
2018-07-30T00:47:36.665Z,20.49
2018-07-30T00:48:36.712Z,20.46
2018-07-30T00:49:36.792Z,20.50
2018-07-30T00:50:36.843Z,20.41
2018-07-30T00:51:36.868Z,20.46
2018-07-30T00:52:36.919Z,20.54
2018-07-30T00:53:36.970Z,20.41
2018-07-30T00:54:37.023Z,20.39
2018-07-30T00:55:37.096Z,20.38
2018-07-30T00:56:37.123Z,20.30
2018-07-30T00:57:37.174Z,20.34
2018-07-30T00:58:37.226Z,20.34
2018-07-30T00:59:38.217Z,20.38
2018-07-30T01:00:37.351Z,20.39
2018-07-30T01:01:37.379Z,20.34
2018-07-30T01:02:37.428Z,20.39
2018-07-30T01:03:37.481Z,20.34
2018-07-30T01:04:37.533Z,20.28
2018-07-30T01:05:37.605Z,20.28
2018-07-30T01:06:37.635Z,20.24
2018-07-30T01:07:37.697Z,20.24
2018-07-30T01:08:37.736Z,20.20
2018-07-30T01:09:37.786Z,20.27
2018-07-30T01:10:37.876Z,20.23
2018-07-30T01:11:37.892Z,20.21
2018-07-30T01:12:37.945Z,20.21
2018-07-30T01:13:37.996Z,20.15
2018-07-30T01:14:38.048Z,20.20
2018-07-30T01:15:38.127Z,20.16
2018-07-30T01:16:38.169Z,20.24
2018-07-30T01:17:38.196Z,20.20
2018-07-30T01:18:38.247Z,20.20
2018-07-30T01:19:38.300Z,20.21
2018-07-30T01:20:38.354Z,20.18
2018-07-30T01:21:38.442Z,20.16
2018-07-30T01:22:38.476Z,20.28
2018-07-30T01:23:38.505Z,20.23
2018-07-30T01:24:38.554Z,20.18
2018-07-30T01:25:38.606Z,20.18
2018-07-30T01:26:38.656Z,20.18
2018-07-30T01:27:38.734Z,20.23
2018-07-30T01:28:38.762Z,20.23
2018-07-30T01:29:38.813Z,20.24
2018-07-30T01:30:38.869Z,20.18
2018-07-30T01:31:38.937Z,20.21
2018-07-30T01:32:38.961Z,20.25
2018-07-30T01:33:39.017Z,20.21
2018-07-30T01:34:39.068Z,20.23
2018-07-30T01:35:39.117Z,20.27
2018-07-30T01:36:39.193Z,20.15
2018-07-30T01:37:39.218Z,20.21
2018-07-30T01:38:39.270Z,20.23
2018-07-30T01:39:39.323Z,20.23
2018-07-30T01:40:39.372Z,20.16
2018-07-30T01:41:39.453Z,20.23
2018-07-30T01:42:39.475Z,20.25
2018-07-30T01:43:39.527Z,20.25
2018-07-30T01:44:39.579Z,20.13
2018-07-30T01:45:39.629Z,20.16
2018-07-30T01:46:39.703Z,20.18
2018-07-30T01:47:39.731Z,20.16
2018-07-30T01:48:39.815Z,20.20
2018-07-30T01:49:39.832Z,20.13
2018-07-30T01:50:39.883Z,20.23
2018-07-30T01:51:39.974Z,20.18
2018-07-30T01:52:39.985Z,20.05
2018-07-30T01:53:40.038Z,20.05
2018-07-30T01:54:40.088Z,20.10
2018-07-30T01:55:40.143Z,20.06
2018-07-30T01:56:40.213Z,20.10
2018-07-30T01:57:40.247Z,20.08
2018-07-30T01:58:40.329Z,20.06
2018-07-30T01:59:40.345Z,20.06
2018-07-30T02:00:40.396Z,19.95
2018-07-30T02:01:40.446Z,20.03
2018-07-30T02:02:40.499Z,20.05
2018-07-30T02:03:40.571Z,19.98
2018-07-30T02:04:40.602Z,19.97
2018-07-30T02:05:40.650Z,19.98
2018-07-30T02:06:40.700Z,19.95
2018-07-30T02:07:40.752Z,20.02
2018-07-30T02:08:40.848Z,19.97
2018-07-30T02:09:40.856Z,19.94
2018-07-30T02:10:40.907Z,19.86
2018-07-30T02:11:40.956Z,19.86
2018-07-30T02:12:41.009Z,19.90
2018-07-30T02:13:41.090Z,19.83
2018-07-30T02:14:41.109Z,19.86
2018-07-30T02:15:41.165Z,19.86
2018-07-30T02:16:41.213Z,19.76
2018-07-30T02:17:41.264Z,19.79
2018-07-30T02:18:41.345Z,19.72
2018-07-30T02:19:41.365Z,19.70
2018-07-30T02:20:41.415Z,19.72
2018-07-30T02:21:41.468Z,19.65
2018-07-30T02:22:41.521Z,19.69
2018-07-30T02:23:41.607Z,19.78
2018-07-30T02:24:41.625Z,19.65
2018-07-30T02:25:41.672Z,19.68
2018-07-30T02:26:41.727Z,19.60
2018-07-30T02:27:41.774Z,19.65
2018-07-30T02:28:41.854Z,19.69
2018-07-30T02:29:41.878Z,19.63
2018-07-30T02:30:41.928Z,19.69
2018-07-30T02:31:42.001Z,19.69
2018-07-30T02:32:42.027Z,19.70
2018-07-30T02:33:42.081Z,19.63
2018-07-30T02:34:42.133Z,19.68
2018-07-30T02:35:42.208Z,19.69
2018-07-30T02:36:42.234Z,19.69
2018-07-30T02:37:42.286Z,19.65
2018-07-30T02:38:42.334Z,19.54
2018-07-30T02:39:42.387Z,19.61
2018-07-30T02:40:42.462Z,19.51
2018-07-30T02:41:42.512Z,19.60
2018-07-30T02:42:42.542Z,19.58
2018-07-30T02:43:42.593Z,19.55
2018-07-30T02:44:42.650Z,19.55
2018-07-30T02:45:42.763Z,19.51
2018-07-30T02:46:42.769Z,19.60
2018-07-30T02:47:42.810Z,19.54
2018-07-30T02:48:42.844Z,19.57
2018-07-30T02:49:42.896Z,19.53
2018-07-30T02:50:42.949Z,19.53
2018-07-30T02:51:43.022Z,19.50
2018-07-30T02:52:43.051Z,19.46
2018-07-30T02:53:43.098Z,19.55
2018-07-30T02:54:43.149Z,19.46
2018-07-30T02:55:43.202Z,19.43
2018-07-30T02:56:43.286Z,19.40
2018-07-30T02:57:43.382Z,19.42
2018-07-30T02:58:43.354Z,19.36
2018-07-30T02:59:43.407Z,19.42
2018-07-30T03:00:43.456Z,19.40
2018-07-30T03:01:43.549Z,19.33
2018-07-30T03:02:43.559Z,19.35
2018-07-30T03:03:43.608Z,19.33
2018-07-30T03:04:43.658Z,19.36
2018-07-30T03:05:43.709Z,19.31
2018-07-30T03:06:43.791Z,19.29
2018-07-30T03:07:43.811Z,19.24
2018-07-30T03:08:43.862Z,19.29
2018-07-30T03:09:43.913Z,19.25
2018-07-30T03:10:43.963Z,19.18
2018-07-30T03:11:44.046Z,19.14
2018-07-30T03:12:44.066Z,19.01
2018-07-30T03:13:44.119Z,18.84
2018-07-30T03:14:44.172Z,18.82
2018-07-30T03:15:44.218Z,18.87
2018-07-30T03:16:44.291Z,18.76
2018-07-30T03:17:44.351Z,18.67
2018-07-30T03:18:44.371Z,18.67
2018-07-30T03:19:44.421Z,18.67
2018-07-30T03:20:44.472Z,18.64
2018-07-30T03:21:44.524Z,18.68
2018-07-30T03:22:44.608Z,18.61
2018-07-30T03:23:44.626Z,18.64
2018-07-30T03:24:44.676Z,18.64
2018-07-30T03:25:44.732Z,18.65
2018-07-30T03:26:44.777Z,18.61
2018-07-30T03:27:44.853Z,18.61
2018-07-30T03:28:44.939Z,18.64
2018-07-30T03:29:44.934Z,18.70
2018-07-30T03:30:44.979Z,18.62
2018-07-30T03:31:45.030Z,18.61
2018-07-30T03:32:45.108Z,18.70
2018-07-30T03:33:45.135Z,18.68
2018-07-30T03:34:45.183Z,18.67
2018-07-30T03:35:45.235Z,18.72
2018-07-30T03:36:45.286Z,18.65
2018-07-30T03:37:45.362Z,18.79
2018-07-30T03:38:45.384Z,18.74
2018-07-30T03:39:45.437Z,18.77
2018-07-30T03:40:45.486Z,18.77
2018-07-30T03:41:45.536Z,18.74
2018-07-30T03:42:45.627Z,18.74
2018-07-30T03:43:45.643Z,18.72
2018-07-30T03:44:45.688Z,18.73
2018-07-30T03:45:45.744Z,18.77
2018-07-30T03:46:45.788Z,18.77
2018-07-30T03:47:45.867Z,18.64
2018-07-30T03:48:45.913Z,18.68
2018-07-30T03:49:45.941Z,18.70
2018-07-30T03:50:45.991Z,18.72
2018-07-30T03:51:46.044Z,18.68
2018-07-30T03:52:46.090Z,18.67
2018-07-30T03:53:46.168Z,18.62
2018-07-30T03:54:46.223Z,18.73
2018-07-30T03:55:46.244Z,18.65
2018-07-30T03:56:46.293Z,18.70
2018-07-30T03:57:46.345Z,18.70
2018-07-30T03:58:46.418Z,18.61
2018-07-30T03:59:46.451Z,18.74
2018-07-30T04:00:46.498Z,18.74
2018-07-30T04:01:46.547Z,18.82
2018-07-30T04:02:46.604Z,18.82
2018-07-30T04:03:46.691Z,18.83
2018-07-30T04:04:46.701Z,18.90
2018-07-30T04:05:46.753Z,18.91
2018-07-30T04:06:46.808Z,18.91
2018-07-30T04:07:46.897Z,18.98
2018-07-30T04:08:46.932Z,18.91
2018-07-30T04:09:46.956Z,18.98
2018-07-30T04:10:47.002Z,18.92
2018-07-30T04:11:47.055Z,19.05
2018-07-30T04:12:47.117Z,19.02
2018-07-30T04:13:47.183Z,19.08
2018-07-30T04:14:47.203Z,19.10
2018-07-30T04:15:47.256Z,19.13
2018-07-30T04:16:47.305Z,19.08
2018-07-30T04:17:47.357Z,19.13
2018-07-30T04:18:47.432Z,19.06
2018-07-30T04:19:47.481Z,19.02
2018-07-30T04:20:47.510Z,19.05
2018-07-30T04:21:47.558Z,19.05
2018-07-30T04:22:47.611Z,19.05
2018-07-30T04:23:47.662Z,18.99
2018-07-30T04:24:47.734Z,19.13
2018-07-30T04:25:47.762Z,19.13
2018-07-30T04:26:47.810Z,19.14
2018-07-30T04:27:47.863Z,19.18
2018-07-30T04:28:47.913Z,19.15
2018-07-30T04:29:47.993Z,19.15
2018-07-30T04:30:48.035Z,19.13
2018-07-30T04:31:48.065Z,19.15
2018-07-30T04:32:48.117Z,19.15
2018-07-30T04:33:48.165Z,19.25
2018-07-30T04:34:48.257Z,19.20
2018-07-30T04:35:48.271Z,19.21
2018-07-30T04:36:48.319Z,19.23
2018-07-30T04:37:48.369Z,19.28
2018-07-30T04:38:48.418Z,19.29
2018-07-30T04:39:48.495Z,19.32
2018-07-30T04:40:48.542Z,19.29
2018-07-30T04:41:48.572Z,19.32
2018-07-30T04:42:48.621Z,19.31
2018-07-30T04:43:48.730Z,19.32
2018-07-30T04:44:48.731Z,19.36
2018-07-30T04:45:48.797Z,19.28
2018-07-30T04:46:48.829Z,19.36
2018-07-30T04:47:48.874Z,19.35
2018-07-30T04:48:48.925Z,19.31
2018-07-30T04:49:48.976Z,19.35
2018-07-30T04:50:49.057Z,19.36
2018-07-30T04:51:49.080Z,19.36
2018-07-30T04:52:49.127Z,19.35
2018-07-30T04:53:49.186Z,19.31
2018-07-30T04:54:49.232Z,19.33
2018-07-30T04:55:49.306Z,19.36
2018-07-30T04:56:49.334Z,19.32
2018-07-30T04:57:49.386Z,19.31
2018-07-30T04:58:49.436Z,19.32
2018-07-30T04:59:49.483Z,19.38
2018-07-30T05:00:49.558Z,19.43
2018-07-30T05:01:49.589Z,19.43
2018-07-30T05:02:49.636Z,19.58
2018-07-30T05:03:49.705Z,19.63
2018-07-30T05:04:49.739Z,19.69
2018-07-30T05:05:49.821Z,19.70
2018-07-30T05:06:49.841Z,19.75
2018-07-30T05:07:49.898Z,19.80
2018-07-30T05:08:49.943Z,19.83
2018-07-30T05:09:49.996Z,19.86
2018-07-30T05:10:50.079Z,19.88
2018-07-30T05:11:50.104Z,19.93
2018-07-30T05:12:50.145Z,19.95
2018-07-30T05:13:50.196Z,19.98
2018-07-30T05:14:50.246Z,20.10
2018-07-30T05:15:50.337Z,20.05
2018-07-30T05:16:50.348Z,20.05
2018-07-30T05:17:50.400Z,20.12
2018-07-30T05:18:50.451Z,20.16
2018-07-30T05:19:50.504Z,20.16
2018-07-30T05:20:50.594Z,20.23
2018-07-30T05:21:50.605Z,20.30
2018-07-30T05:22:50.655Z,20.34
2018-07-30T05:23:50.706Z,20.41
2018-07-30T05:24:50.755Z,20.39
2018-07-30T05:25:50.833Z,20.56
2018-07-30T05:26:50.883Z,20.50
2018-07-30T05:27:50.911Z,20.56
2018-07-30T05:28:50.957Z,20.62
2018-07-30T05:29:51.015Z,20.64
2018-07-30T05:30:51.073Z,20.64
2018-07-30T05:31:51.148Z,20.66
2018-07-30T05:32:51.172Z,20.69
2018-07-30T05:33:51.217Z,20.66
2018-07-30T05:34:51.272Z,20.68
2018-07-30T05:35:51.318Z,20.65
2018-07-30T05:36:51.409Z,20.74
2018-07-30T05:37:51.418Z,20.72
2018-07-30T05:38:51.470Z,20.80
2018-07-30T05:39:51.522Z,20.81
2018-07-30T05:40:51.575Z,20.91
2018-07-30T05:41:51.652Z,20.95
2018-07-30T05:42:51.766Z,20.96
2018-07-30T05:43:51.725Z,20.96
2018-07-30T05:44:51.776Z,21.04
2018-07-30T05:45:51.835Z,21.06
2018-07-30T05:46:51.913Z,21.14
2018-07-30T05:47:51.933Z,21.11
2018-07-30T05:48:51.982Z,21.21
2018-07-30T05:49:52.038Z,21.36
2018-07-30T05:50:52.086Z,21.44
2018-07-30T05:51:52.169Z,21.46
2018-07-30T05:52:52.210Z,21.67
2018-07-30T05:53:52.240Z,21.72
2018-07-30T05:54:52.293Z,21.81
2018-07-30T05:55:52.345Z,21.88
2018-07-30T05:56:52.396Z,21.95
2018-07-30T05:57:52.467Z,21.94
2018-07-30T05:58:52.496Z,21.99
2018-07-30T05:59:52.559Z,21.94
2018-07-30T06:00:52.597Z,21.97
2018-07-30T06:01:52.649Z,22.02
2018-07-30T06:02:52.726Z,22.06
2018-07-30T06:03:52.755Z,22.04
2018-07-30T06:04:52.806Z,22.04
2018-07-30T06:05:52.862Z,21.98
2018-07-30T06:06:52.908Z,22.06
2018-07-30T06:07:52.985Z,22.13
2018-07-30T06:08:53.015Z,22.13
2018-07-30T06:09:53.062Z,22.25
2018-07-30T06:10:53.116Z,22.31
2018-07-30T06:11:53.170Z,22.39
2018-07-30T06:12:53.247Z,22.37
2018-07-30T06:13:53.268Z,22.53
2018-07-30T06:14:53.320Z,22.52
2018-07-30T06:15:53.372Z,22.62
2018-07-30T06:16:53.423Z,22.64
2018-07-30T06:17:53.507Z,22.68
2018-07-30T06:18:53.528Z,22.69
2018-07-30T06:19:53.580Z,22.71
2018-07-30T06:20:53.667Z,22.77
2018-07-30T06:21:53.684Z,22.80
2018-07-30T06:22:53.778Z,22.83
2018-07-30T06:23:53.789Z,22.97
2018-07-30T06:24:53.841Z,22.93
2018-07-30T06:25:53.892Z,22.94
2018-07-30T06:26:53.943Z,23.08
2018-07-30T06:27:54.027Z,23.08
2018-07-30T06:28:54.047Z,23.09
2018-07-30T06:29:54.101Z,23.08
2018-07-30T06:30:54.152Z,23.20
2018-07-30T06:31:54.235Z,23.27
2018-07-30T06:32:54.285Z,23.27
2018-07-30T06:33:54.309Z,23.38
2018-07-30T06:34:54.364Z,23.40
2018-07-30T06:35:54.421Z,23.45
2018-07-30T06:36:54.463Z,23.50
2018-07-30T06:37:54.847Z,23.46
2018-07-30T06:38:54.573Z,23.50
2018-07-30T06:39:54.649Z,23.45
2018-07-30T06:40:54.676Z,23.46
2018-07-30T06:41:54.725Z,23.55
2018-07-30T06:42:54.781Z,23.49
2018-07-30T06:43:54.853Z,23.43
2018-07-30T06:44:54.909Z,23.50
2018-07-30T06:45:54.938Z,23.62
2018-07-30T06:46:54.990Z,23.62
2018-07-30T06:47:55.047Z,23.72
2018-07-30T06:48:55.095Z,23.83
2018-07-30T06:49:55.186Z,23.76
2018-07-30T06:50:55.200Z,23.89
2018-07-30T06:51:55.256Z,24.20
2018-07-30T06:52:55.308Z,24.61
2018-07-30T06:53:55.389Z,25.34
2018-07-30T06:54:55.411Z,25.83
2018-07-30T06:55:55.467Z,26.15
2018-07-30T06:56:55.516Z,26.39
2018-07-30T06:57:55.568Z,26.84
2018-07-30T06:58:55.655Z,27.23
2018-07-30T06:59:55.676Z,27.42
2018-07-30T07:00:55.732Z,28.13
2018-07-30T07:01:55.798Z,28.46
2018-07-30T07:02:55.837Z,28.35
2018-07-30T07:03:55.921Z,28.13
2018-07-30T07:04:55.941Z,28.46
2018-07-30T07:05:55.998Z,28.58
2018-07-30T07:06:56.052Z,28.56
2018-07-30T07:07:56.108Z,28.13
2018-07-30T07:08:56.200Z,28.28
2018-07-30T07:09:56.214Z,28.29
2018-07-30T07:10:56.293Z,28.41
2018-07-30T07:11:56.325Z,28.70
2018-07-30T07:12:56.373Z,28.68
2018-07-30T07:13:56.464Z,28.73
2018-07-30T07:14:56.484Z,28.95
2018-07-30T07:15:56.539Z,29.20
2018-07-30T07:16:56.622Z,29.43
2018-07-30T07:17:56.649Z,29.62
2018-07-30T07:18:56.743Z,29.89
2018-07-30T07:19:56.758Z,30.49
2018-07-30T07:20:56.812Z,31.08
2018-07-30T07:21:56.872Z,31.38
2018-07-30T07:22:56.945Z,31.45
2018-07-30T07:23:56.977Z,31.31
2018-07-30T07:24:57.034Z,31.46
2018-07-30T07:25:57.088Z,31.72
2018-07-30T07:26:57.159Z,31.62
2018-07-30T07:27:57.283Z,31.42
2018-07-30T07:28:57.258Z,31.36
2018-07-30T07:29:57.312Z,31.48
2018-07-30T07:30:57.374Z,31.45
2018-07-30T07:31:57.425Z,31.38
2018-07-30T07:32:57.527Z,31.09
2018-07-30T07:33:57.541Z,31.42
2018-07-30T07:34:57.609Z,31.65
2018-07-30T07:35:57.648Z,31.93
2018-07-30T07:36:57.703Z,32.17
2018-07-30T07:37:57.803Z,32.25
2018-07-30T07:38:57.818Z,32.62
2018-07-30T07:39:57.875Z,32.67
2018-07-30T07:40:57.930Z,32.81
2018-07-30T07:41:57.985Z,32.86
2018-07-30T07:42:58.078Z,32.96
2018-07-30T07:43:58.100Z,33.13
2018-07-30T07:44:58.182Z,33.27
2018-07-30T07:45:58.233Z,33.37
2018-07-30T07:46:58.317Z,33.45
2018-07-30T07:47:58.329Z,33.86
2018-07-30T07:48:58.415Z,34.17
2018-07-30T07:49:58.487Z,33.85
2018-07-30T07:50:58.656Z,33.27
2018-07-30T07:51:58.559Z,32.59
2018-07-30T07:52:58.647Z,32.40
2018-07-30T07:53:58.674Z,32.21
2018-07-30T07:54:58.775Z,32.40
2018-07-30T07:55:58.789Z,32.44
2018-07-30T07:56:58.849Z,32.39
2018-07-30T07:57:58.904Z,32.05
2018-07-30T07:58:58.963Z,31.09
2018-07-30T07:59:59.052Z,31.43
2018-07-30T08:00:59.077Z,31.45
2018-07-30T08:01:59.140Z,31.48
2018-07-30T08:02:59.205Z,31.09
2018-07-30T08:03:59.333Z,30.50
2018-07-30T08:04:59.338Z,30.69
2018-07-30T08:05:59.369Z,30.65
2018-07-30T08:06:59.425Z,30.56
2018-07-30T08:07:59.482Z,30.99
2018-07-30T08:08:59.540Z,30.84
2018-07-30T08:09:59.619Z,30.76
2018-07-30T08:10:59.695Z,31.30
2018-07-30T08:11:59.712Z,31.50
2018-07-30T08:12:59.767Z,31.15
2018-07-30T08:13:59.825Z,30.96
2018-07-30T08:14:59.906Z,31.17
2018-07-30T08:15:59.943Z,30.76
2018-07-30T08:16:59.999Z,30.46
2018-07-30T08:18:00.056Z,30.46
2018-07-30T08:19:00.113Z,30.61
2018-07-30T08:20:00.194Z,30.50
2018-07-30T08:21:00.229Z,30.67
2018-07-30T08:22:00.293Z,30.47
2018-07-30T08:23:00.342Z,30.64
2018-07-30T08:24:00.402Z,30.56
2018-07-30T08:25:00.485Z,31.08
2018-07-30T08:26:00.518Z,31.20
2018-07-30T08:27:00.572Z,31.01
2018-07-30T08:28:00.630Z,30.90
2018-07-30T08:29:00.744Z,31.21
2018-07-30T08:30:00.766Z,31.13
2018-07-30T08:31:00.799Z,31.08
2018-07-30T08:32:00.858Z,30.69
2018-07-30T08:33:01.000Z,31.02
2018-07-30T08:34:00.996Z,31.43
2018-07-30T08:35:01.030Z,31.75
2018-07-30T08:36:01.093Z,32.03
2018-07-30T08:37:01.146Z,31.91
2018-07-30T08:38:01.207Z,32.02
2018-07-30T08:39:01.292Z,32.00
2018-07-30T08:40:01.321Z,31.75
2018-07-30T08:41:01.378Z,30.98
2018-07-30T08:42:01.438Z,29.82
2018-07-30T08:43:01.491Z,29.41
2018-07-30T08:44:01.575Z,29.87
2018-07-30T08:45:01.607Z,30.49
2018-07-30T08:46:01.691Z,31.04
2018-07-30T08:47:01.723Z,31.18
2018-07-30T08:48:01.781Z,31.15
2018-07-30T08:49:01.841Z,31.57
2018-07-30T08:50:01.901Z,31.92
2018-07-30T08:51:01.987Z,32.40
2018-07-30T08:52:02.012Z,32.67
2018-07-30T08:53:02.070Z,32.18
2018-07-30T08:54:02.127Z,32.14
2018-07-30T08:55:02.193Z,32.25
2018-07-30T08:56:02.275Z,32.29
2018-07-30T08:57:02.302Z,32.32
2018-07-30T08:58:02.360Z,31.87
2018-07-30T08:59:02.418Z,31.67
2018-07-30T09:00:02.479Z,30.65
2018-07-30T09:01:02.584Z,30.27
2018-07-30T09:02:02.592Z,30.08
2018-07-30T09:03:02.652Z,30.62
2018-07-30T09:04:02.710Z,30.34
2018-07-30T09:05:02.767Z,29.86
2018-07-30T09:06:02.851Z,30.40
2018-07-30T09:07:02.961Z,30.24
2018-07-30T09:08:02.942Z,30.07
2018-07-30T09:09:02.998Z,29.87
2018-07-30T09:10:03.056Z,29.33
2018-07-30T09:11:03.116Z,29.41
2018-07-30T09:12:03.196Z,29.43
2018-07-30T09:13:03.232Z,29.34
2018-07-30T09:14:03.289Z,28.72
2018-07-30T09:15:03.347Z,28.87
2018-07-30T09:16:03.405Z,28.69
2018-07-30T09:17:03.488Z,28.65
2018-07-30T09:18:03.543Z,28.96
2018-07-30T09:19:03.581Z,29.57
2018-07-30T09:20:03.635Z,29.87
2018-07-30T09:21:03.698Z,30.27
2018-07-30T09:22:03.775Z,30.69
2018-07-30T09:23:03.810Z,30.21
2018-07-30T09:24:03.865Z,30.62
2018-07-30T09:25:03.921Z,31.05
2018-07-30T09:26:03.979Z,31.35
2018-07-30T09:27:04.134Z,30.68
2018-07-30T09:28:04.124Z,30.91
2018-07-30T09:29:04.152Z,31.15
2018-07-30T09:30:04.210Z,30.74
2018-07-30T09:31:04.270Z,30.18
2018-07-30T09:32:04.329Z,29.86
2018-07-30T09:33:04.479Z,29.35
2018-07-30T09:34:04.445Z,29.50
2018-07-30T09:35:04.506Z,29.19
2018-07-30T09:36:04.558Z,29.08
2018-07-30T09:37:04.618Z,29.13
2018-07-30T09:38:04.714Z,29.34
2018-07-30T09:39:04.755Z,29.74
2018-07-30T09:40:04.792Z,30.27
2018-07-30T09:41:04.862Z,30.62
2018-07-30T09:42:04.906Z,31.06
2018-07-30T09:43:05.027Z,30.80
2018-07-30T09:44:05.020Z,30.76
2018-07-30T09:45:05.081Z,30.71
2018-07-30T09:46:05.137Z,30.56
2018-07-30T09:47:05.196Z,30.56
2018-07-30T09:48:05.276Z,30.47
2018-07-30T09:49:05.309Z,30.30
2018-07-30T09:50:05.370Z,29.94
2018-07-30T09:51:05.429Z,29.90
2018-07-30T09:52:05.485Z,29.28
2018-07-30T09:53:05.578Z,28.68
2018-07-30T09:54:05.601Z,28.78
2018-07-30T09:55:05.660Z,28.28
2018-07-30T09:56:05.729Z,28.19
2018-07-30T09:57:06.412Z,27.94
2018-07-30T09:58:05.859Z,28.22
2018-07-30T09:59:05.917Z,28.11
2018-07-30T10:00:05.950Z,28.33
2018-07-30T10:01:06.006Z,28.44
2018-07-30T10:02:06.066Z,28.66
2018-07-30T10:03:06.147Z,28.26
2018-07-30T10:04:06.239Z,28.46
2018-07-30T10:05:06.239Z,28.75
2018-07-30T10:06:06.308Z,28.96
2018-07-30T10:07:06.352Z,28.82
2018-07-30T10:08:06.413Z,29.35
2018-07-30T10:09:06.503Z,28.85
2018-07-30T10:10:06.524Z,28.50
2018-07-30T10:11:06.581Z,28.56
2018-07-30T10:12:06.639Z,28.59
2018-07-30T10:13:06.698Z,28.62
2018-07-30T10:14:06.784Z,28.36
2018-07-30T10:15:06.811Z,28.29
2018-07-30T10:16:06.870Z,28.46
2018-07-30T10:17:06.924Z,28.06
2018-07-30T10:18:07.173Z,28.21
2018-07-30T10:19:07.083Z,28.38
2018-07-30T10:20:07.100Z,28.40
2018-07-30T10:21:07.158Z,28.78
2018-07-30T10:22:07.213Z,29.13
2018-07-30T10:23:07.274Z,29.47
2018-07-30T10:24:07.352Z,29.45
2018-07-30T10:25:07.407Z,28.78
2018-07-30T10:26:07.441Z,28.72
2018-07-30T10:27:07.498Z,28.69
2018-07-30T10:28:07.556Z,28.48
2018-07-30T10:29:07.611Z,28.59
2018-07-30T10:30:07.690Z,28.70
2018-07-30T10:31:07.728Z,29.06
2018-07-30T10:32:07.789Z,29.28
2018-07-30T10:33:07.840Z,29.13
2018-07-30T10:34:07.899Z,28.82
2018-07-30T10:35:07.976Z,28.81
2018-07-30T10:36:08.011Z,28.84
2018-07-30T10:37:08.066Z,28.97
2018-07-30T10:38:08.171Z,29.18
2018-07-30T10:39:08.184Z,29.37
2018-07-30T10:40:08.266Z,29.35
2018-07-30T10:41:08.296Z,29.28
2018-07-30T10:42:08.353Z,29.47
2018-07-30T10:43:08.932Z,29.41
2018-07-30T10:44:08.471Z,29.65
2018-07-30T10:45:08.549Z,30.07
2018-07-30T10:46:08.585Z,30.26
2018-07-30T10:47:08.639Z,30.78
2018-07-30T10:48:08.708Z,31.09
2018-07-30T10:49:08.753Z,31.31
2018-07-30T10:50:08.852Z,31.67
2018-07-30T10:51:08.872Z,31.88
2018-07-30T10:52:08.933Z,32.06
2018-07-30T10:53:08.988Z,32.07
2018-07-30T10:54:09.047Z,32.25
2018-07-30T10:55:09.134Z,32.14
2018-07-30T10:56:09.165Z,32.40
2018-07-30T10:57:09.221Z,32.13
2018-07-30T10:58:09.281Z,32.03
2018-07-30T10:59:09.336Z,31.77
2018-07-30T11:00:09.424Z,31.20
2018-07-30T11:01:09.487Z,30.84
2018-07-30T11:02:09.512Z,30.78
2018-07-30T11:03:09.571Z,31.04
2018-07-30T11:04:09.634Z,31.26
2018-07-30T11:05:09.688Z,31.67
2018-07-30T11:06:09.995Z,32.02
2018-07-30T11:07:09.806Z,32.03
2018-07-30T11:08:09.914Z,31.87
2018-07-30T11:09:09.925Z,31.46
2018-07-30T11:10:10.002Z,31.21
2018-07-30T11:11:10.073Z,31.18
2018-07-30T11:12:10.105Z,30.75
2018-07-30T11:13:10.161Z,30.43
2018-07-30T11:14:10.221Z,30.34
2018-07-30T11:15:10.280Z,30.56
2018-07-30T11:16:10.365Z,30.56
2018-07-30T11:17:10.422Z,31.06
2018-07-30T11:18:10.457Z,31.62
2018-07-30T11:19:10.518Z,32.07
2018-07-30T11:20:10.577Z,32.03
2018-07-30T11:21:10.634Z,32.39
2018-07-30T11:22:10.718Z,32.67
2018-07-30T11:23:10.751Z,32.95
2018-07-30T11:24:10.811Z,32.99
2018-07-30T11:25:10.870Z,32.66
2018-07-30T11:26:10.932Z,32.62
2018-07-30T11:27:11.014Z,32.61
2018-07-30T11:28:11.105Z,32.51
2018-07-30T11:29:11.111Z,32.39
2018-07-30T11:30:11.170Z,32.15
2018-07-30T11:31:11.228Z,32.13
2018-07-30T11:32:11.312Z,32.18
2018-07-30T11:33:11.351Z,32.25
2018-07-30T11:34:11.411Z,32.49
2018-07-30T11:35:11.474Z,32.32
2018-07-30T11:36:11.530Z,32.39
2018-07-30T11:37:11.616Z,32.49
2018-07-30T11:38:11.674Z,32.93
2018-07-30T11:39:11.709Z,33.01
2018-07-30T11:40:11.770Z,33.23
2018-07-30T11:41:11.832Z,33.19
2018-07-30T11:42:11.891Z,33.67
2018-07-30T11:43:11.977Z,34.16
2018-07-30T11:44:12.012Z,34.50
2018-07-30T11:45:12.072Z,34.81
2018-07-30T11:46:12.135Z,34.56
2018-07-30T11:47:12.221Z,34.20
2018-07-30T11:48:12.285Z,33.83
2018-07-30T11:49:12.318Z,33.76
2018-07-30T11:50:12.380Z,33.49
2018-07-30T11:51:12.437Z,33.78
2018-07-30T11:52:12.498Z,34.23
2018-07-30T11:53:12.595Z,34.14
2018-07-30T11:54:12.626Z,33.74
2018-07-30T11:55:12.683Z,33.78
2018-07-30T11:56:12.744Z,33.92
2018-07-30T11:57:12.818Z,33.80
2018-07-30T11:58:12.898Z,33.94
2018-07-30T11:59:12.932Z,34.29
2018-07-30T12:00:12.991Z,34.77
2018-07-30T12:01:13.062Z,35.14
2018-07-30T12:02:13.113Z,35.18
2018-07-30T12:03:13.209Z,35.28
2018-07-30T12:04:13.238Z,35.37
2018-07-30T12:05:13.299Z,35.48
2018-07-30T12:06:13.361Z,35.02
2018-07-30T12:07:13.421Z,34.99
2018-07-30T12:08:13.525Z,35.18
2018-07-30T12:09:13.547Z,35.37
2018-07-30T12:10:13.612Z,35.45
2018-07-30T12:11:13.675Z,34.66
2018-07-30T12:12:13.735Z,34.04
2018-07-30T12:13:13.824Z,33.71
2018-07-30T12:14:13.863Z,33.61
2018-07-30T12:15:13.924Z,34.05
2018-07-30T12:16:13.984Z,34.46
2018-07-30T12:17:14.046Z,34.42
2018-07-30T12:18:14.141Z,33.79
2018-07-30T12:19:14.195Z,33.63
2018-07-30T12:20:14.234Z,33.87
2018-07-30T12:21:14.297Z,33.79
2018-07-30T12:22:14.359Z,34.16
2018-07-30T12:23:14.427Z,34.23
2018-07-30T12:24:14.509Z,34.17
2018-07-30T12:25:14.547Z,34.23
2018-07-30T12:26:14.611Z,34.22
2018-07-30T12:27:14.683Z,34.34
2018-07-30T12:28:14.735Z,34.29
2018-07-30T12:29:14.894Z,34.38
2018-07-30T12:30:14.889Z,34.53
2018-07-30T12:31:14.922Z,34.84
2018-07-30T12:32:14.984Z,35.25
2018-07-30T12:33:15.051Z,34.73
2018-07-30T12:34:15.136Z,34.80
2018-07-30T12:35:15.173Z,34.96
2018-07-30T12:36:15.294Z,34.83
2018-07-30T12:37:15.299Z,34.77
2018-07-30T12:38:15.363Z,34.88
2018-07-30T12:39:15.451Z,35.26
2018-07-30T12:40:15.489Z,35.48
2018-07-30T12:41:15.598Z,35.63
2018-07-30T12:42:15.614Z,35.54
2018-07-30T12:43:15.675Z,35.29
2018-07-30T12:44:15.739Z,35.62
2018-07-30T12:45:15.821Z,35.86
2018-07-30T12:46:15.888Z,35.93
2018-07-30T12:47:15.928Z,35.93
2018-07-30T12:48:15.995Z,36.15
2018-07-30T12:49:16.061Z,36.36
2018-07-30T12:50:16.148Z,36.43
2018-07-30T12:51:16.184Z,36.35
2018-07-30T12:52:16.247Z,36.58
2018-07-30T12:53:16.343Z,36.72